sensor_id;sensor_type;location;lat;lon;timestamp;temperature;humidity
10388;DHT22;5240;51.128;4.566;2023-04-25T00:00:57;9.00;99.90
10388;DHT22;5240;51.128;4.566;2023-04-25T00:03:24;8.80;99.90
10388;DHT22;5240;51.128;4.566;2023-04-25T00:05:53;8.90;99.90
10388;DHT22;5240;51.128;4.566;2023-04-25T00:08:22;8.80;99.90
10388;DHT22;5240;51.128;4.566;2023-04-25T00:10:49;8.70;99.90
10388;DHT22;5240;51.128;4.566;2023-04-25T00:13:16;8.80;99.90
10388;DHT22;5240;51.128;4.566;2023-04-25T00:15:44;8.90;99.90
10388;DHT22;5240;51.128;4.566;2023-04-25T00:18:11;8.90;99.90
10388;DHT22;5240;51.128;4.566;2023-04-25T00:20:38;8.80;99.90
10388;DHT22;5240;51.128;4.566;2023-04-25T00:23:07;8.80;99.90
10388;DHT22;5240;51.128;4.566;2023-04-25T00:25:34;8.70;99.90
10388;DHT22;5240;51.128;4.566;2023-04-25T00:28:01;8.60;99.90
10388;DHT22;5240;51.128;4.566;2023-04-25T00:30:28;8.50;99.90
10388;DHT22;5240;51.128;4.566;2023-04-25T00:32:55;8.50;99.90
10388;DHT22;5240;51.128;4.566;2023-04-25T00:35:22;8.60;99.90
10388;DHT22;5240;51.128;4.566;2023-04-25T00:37:49;8.60;99.90
10388;DHT22;5240;51.128;4.566;2023-04-25T00:40:17;8.60;99.90
10388;DHT22;5240;51.128;4.566;2023-04-25T00:42:45;8.80;99.90
10388;DHT22;5240;51.128;4.566;2023-04-25T00:45:14;8.70;99.90
10388;DHT22;5240;51.128;4.566;2023-04-25T00:47:42;8.60;99.90
10388;DHT22;5240;51.128;4.566;2023-04-25T00:50:10;8.60;99.90
10388;DHT22;5240;51.128;4.566;2023-04-25T00:52:38;8.60;99.90
10388;DHT22;5240;51.128;4.566;2023-04-25T00:55:05;8.60;99.90
10388;DHT22;5240;51.128;4.566;2023-04-25T00:57:34;8.70;99.90
10388;DHT22;5240;51.128;4.566;2023-04-25T01:00:03;8.60;99.90
10388;DHT22;5240;51.128;4.566;2023-04-25T01:02:32;8.50;99.90
10388;DHT22;5240;51.128;4.566;2023-04-25T01:05:01;8.60;99.90
10388;DHT22;5240;51.128;4.566;2023-04-25T01:07:28;8.60;99.90
10388;DHT22;5240;51.128;4.566;2023-04-25T01:09:55;8.60;99.90
10388;DHT22;5240;51.128;4.566;2023-04-25T01:12:23;8.60;99.90
10388;DHT22;5240;51.128;4.566;2023-04-25T01:14:52;8.60;99.90
10388;DHT22;5240;51.128;4.566;2023-04-25T01:17:19;8.60;99.90
10388;DHT22;5240;51.128;4.566;2023-04-25T01:19:46;8.70;99.90
10388;DHT22;5240;51.128;4.566;2023-04-25T01:22:15;9.50;99.90
10388;DHT22;5240;51.128;4.566;2023-04-25T01:24:43;8.60;99.90
10388;DHT22;5240;51.128;4.566;2023-04-25T01:27:10;8.70;99.90
10388;DHT22;5240;51.128;4.566;2023-04-25T01:29:37;8.60;99.90
10388;DHT22;5240;51.128;4.566;2023-04-25T01:32:05;8.60;99.90
10388;DHT22;5240;51.128;4.566;2023-04-25T01:34:32;8.60;99.90
10388;DHT22;5240;51.128;4.566;2023-04-25T01:37:00;8.60;99.90
10388;DHT22;5240;51.128;4.566;2023-04-25T01:39:29;8.50;99.90
10388;DHT22;5240;51.128;4.566;2023-04-25T01:41:57;8.60;99.90
10388;DHT22;5240;51.128;4.566;2023-04-25T01:44:24;8.60;99.90
10388;DHT22;5240;51.128;4.566;2023-04-25T01:46:51;8.10;99.90
10388;DHT22;5240;51.128;4.566;2023-04-25T01:49:18;8.50;99.90
10388;DHT22;5240;51.128;4.566;2023-04-25T01:51:45;8.00;99.90
10388;DHT22;5240;51.128;4.566;2023-04-25T01:54:13;8.40;99.90
10388;DHT22;5240;51.128;4.566;2023-04-25T01:56:41;8.40;99.90
10388;DHT22;5240;51.128;4.566;2023-04-25T01:59:08;8.40;99.90
10388;DHT22;5240;51.128;4.566;2023-04-25T02:01:35;8.50;99.90
10388;DHT22;5240;51.128;4.566;2023-04-25T02:04:02;8.80;99.90
10388;DHT22;5240;51.128;4.566;2023-04-25T02:06:29;8.40;99.90
10388;DHT22;5240;51.128;4.566;2023-04-25T02:08:57;8.50;99.90
10388;DHT22;5240;51.128;4.566;2023-04-25T02:11:24;8.40;99.90
10388;DHT22;5240;51.128;4.566;2023-04-25T02:13:53;8.40;99.90
10388;DHT22;5240;51.128;4.566;2023-04-25T02:16:20;8.50;99.90
10388;DHT22;5240;51.128;4.566;2023-04-25T02:18:47;8.50;99.90
10388;DHT22;5240;51.128;4.566;2023-04-25T02:21:14;8.40;99.90
10388;DHT22;5240;51.128;4.566;2023-04-25T02:23:41;8.90;99.90
10388;DHT22;5240;51.128;4.566;2023-04-25T02:26:08;8.40;99.90
10388;DHT22;5240;51.128;4.566;2023-04-25T02:28:36;8.40;99.90
10388;DHT22;5240;51.128;4.566;2023-04-25T02:31:05;8.50;99.90
10388;DHT22;5240;51.128;4.566;2023-04-25T02:33:32;8.50;99.90
10388;DHT22;5240;51.128;4.566;2023-04-25T02:36:00;8.50;99.90
10388;DHT22;5240;51.128;4.566;2023-04-25T02:38:27;8.60;99.90
10388;DHT22;5240;51.128;4.566;2023-04-25T02:40:54;8.40;99.90
10388;DHT22;5240;51.128;4.566;2023-04-25T02:43:21;8.30;99.90
10388;DHT22;5240;51.128;4.566;2023-04-25T02:45:48;8.20;99.90
10388;DHT22;5240;51.128;4.566;2023-04-25T02:48:16;8.20;99.90
10388;DHT22;5240;51.128;4.566;2023-04-25T02:50:43;8.20;99.90
10388;DHT22;5240;51.128;4.566;2023-04-25T02:53:11;8.00;99.90
10388;DHT22;5240;51.128;4.566;2023-04-25T02:55:38;7.80;99.90
10388;DHT22;5240;51.128;4.566;2023-04-25T02:58:05;7.70;99.90
10388;DHT22;5240;51.128;4.566;2023-04-25T03:00:32;7.90;99.90
10388;DHT22;5240;51.128;4.566;2023-04-25T03:02:59;7.70;99.90
10388;DHT22;5240;51.128;4.566;2023-04-25T03:05:28;7.70;99.90
10388;DHT22;5240;51.128;4.566;2023-04-25T03:07:55;7.70;99.90
10388;DHT22;5240;51.128;4.566;2023-04-25T03:10:22;7.70;99.90
10388;DHT22;5240;51.128;4.566;2023-04-25T03:12:49;7.70;99.90
10388;DHT22;5240;51.128;4.566;2023-04-25T03:15:16;7.70;99.90
10388;DHT22;5240;51.128;4.566;2023-04-25T03:17:43;7.60;99.90
10388;DHT22;5240;51.128;4.566;2023-04-25T03:20:11;7.70;99.90
10388;DHT22;5240;51.128;4.566;2023-04-25T03:22:39;7.70;99.90
10388;DHT22;5240;51.128;4.566;2023-04-25T03:25:07;7.80;99.90
10388;DHT22;5240;51.128;4.566;2023-04-25T03:27:34;7.90;99.90
10388;DHT22;5240;51.128;4.566;2023-04-25T03:30:01;8.00;99.90
10388;DHT22;5240;51.128;4.566;2023-04-25T03:32:28;7.90;99.90
10388;DHT22;5240;51.128;4.566;2023-04-25T03:34:55;7.90;99.90
10388;DHT22;5240;51.128;4.566;2023-04-25T03:37:22;7.90;99.90
10388;DHT22;5240;51.128;4.566;2023-04-25T03:39:50;7.80;99.90
10388;DHT22;5240;51.128;4.566;2023-04-25T03:42:17;7.90;99.90
10388;DHT22;5240;51.128;4.566;2023-04-25T03:44:45;7.80;99.90
10388;DHT22;5240;51.128;4.566;2023-04-25T03:47:12;7.80;99.90
10388;DHT22;5240;51.128;4.566;2023-04-25T03:49:39;7.80;99.90
10388;DHT22;5240;51.128;4.566;2023-04-25T03:52:06;7.50;99.90
10388;DHT22;5240;51.128;4.566;2023-04-25T03:54:33;7.60;99.90
10388;DHT22;5240;51.128;4.566;2023-04-25T03:57:01;7.90;99.90
10388;DHT22;5240;51.128;4.566;2023-04-25T03:59:28;7.80;99.90
10388;DHT22;5240;51.128;4.566;2023-04-25T04:01:56;7.80;99.90
10388;DHT22;5240;51.128;4.566;2023-04-25T04:04:23;7.80;99.90
10388;DHT22;5240;51.128;4.566;2023-04-25T04:06:50;7.80;99.90
10388;DHT22;5240;51.128;4.566;2023-04-25T04:09:18;7.80;99.90
10388;DHT22;5240;51.128;4.566;2023-04-25T04:11:46;7.80;99.90
10388;DHT22;5240;51.128;4.566;2023-04-25T04:14:14;7.80;99.90
10388;DHT22;5240;51.128;4.566;2023-04-25T04:16:41;7.80;99.90
10388;DHT22;5240;51.128;4.566;2023-04-25T04:19:08;7.80;99.90
10388;DHT22;5240;51.128;4.566;2023-04-25T04:21:36;7.80;99.90
10388;DHT22;5240;51.128;4.566;2023-04-25T04:24:03;7.80;99.90
10388;DHT22;5240;51.128;4.566;2023-04-25T04:26:32;7.80;99.90
10388;DHT22;5240;51.128;4.566;2023-04-25T04:29:00;7.80;99.90
10388;DHT22;5240;51.128;4.566;2023-04-25T04:31:28;7.80;99.90
10388;DHT22;5240;51.128;4.566;2023-04-25T04:33:56;7.80;99.90
10388;DHT22;5240;51.128;4.566;2023-04-25T04:36:22;7.80;99.90
10388;DHT22;5240;51.128;4.566;2023-04-25T04:38:50;7.80;99.90
10388;DHT22;5240;51.128;4.566;2023-04-25T04:41:18;7.70;99.90
10388;DHT22;5240;51.128;4.566;2023-04-25T04:46:14;7.70;99.90
10388;DHT22;5240;51.128;4.566;2023-04-25T05:10:52;7.80;99.90
10388;DHT22;5240;51.128;4.566;2023-04-25T05:13:20;7.80;99.90
10388;DHT22;5240;51.128;4.566;2023-04-25T05:15:47;7.70;99.90
10388;DHT22;5240;51.128;4.566;2023-04-25T05:18:14;7.70;99.90
10388;DHT22;5240;51.128;4.566;2023-04-25T05:20:41;7.80;99.90
10388;DHT22;5240;51.128;4.566;2023-04-25T05:23:09;7.70;99.90
10388;DHT22;5240;51.128;4.566;2023-04-25T05:25:36;7.80;99.90
10388;DHT22;5240;51.128;4.566;2023-04-25T05:28:03;7.80;99.90
10388;DHT22;5240;51.128;4.566;2023-04-25T05:30:31;7.80;99.90
10388;DHT22;5240;51.128;4.566;2023-04-25T05:32:58;7.90;99.90
10388;DHT22;5240;51.128;4.566;2023-04-25T05:35:25;7.90;99.90
10388;DHT22;5240;51.128;4.566;2023-04-25T05:37:52;7.90;99.90
10388;DHT22;5240;51.128;4.566;2023-04-25T05:40:20;8.00;99.90
10388;DHT22;5240;51.128;4.566;2023-04-25T05:42:47;8.00;99.90
10388;DHT22;5240;51.128;4.566;2023-04-25T05:45:15;8.00;99.90
10388;DHT22;5240;51.128;4.566;2023-04-25T05:47:43;8.00;99.90
10388;DHT22;5240;51.128;4.566;2023-04-25T05:50:10;8.00;99.90
10388;DHT22;5240;51.128;4.566;2023-04-25T05:52:37;8.00;99.90
10388;DHT22;5240;51.128;4.566;2023-04-25T05:55:05;8.10;99.90
10388;DHT22;5240;51.128;4.566;2023-04-25T05:57:34;8.10;99.90
10388;DHT22;5240;51.128;4.566;2023-04-25T06:00:01;8.30;99.90
10388;DHT22;5240;51.128;4.566;2023-04-25T06:02:29;8.30;99.90
10388;DHT22;5240;51.128;4.566;2023-04-25T06:04:56;8.30;99.90
10388;DHT22;5240;51.128;4.566;2023-04-25T06:07:23;8.30;99.90
10388;DHT22;5240;51.128;4.566;2023-04-25T06:09:50;8.20;99.90
10388;DHT22;5240;51.128;4.566;2023-04-25T06:12:18;8.20;99.90
10388;DHT22;5240;51.128;4.566;2023-04-25T06:14:47;8.20;99.90
10388;DHT22;5240;51.128;4.566;2023-04-25T06:17:14;8.30;99.90
10388;DHT22;5240;51.128;4.566;2023-04-25T06:19:41;8.30;99.90
10388;DHT22;5240;51.128;4.566;2023-04-25T06:22:09;8.40;99.90
10388;DHT22;5240;51.128;4.566;2023-04-25T06:24:38;8.50;99.90
10388;DHT22;5240;51.128;4.566;2023-04-25T06:27:05;8.60;99.90
10388;DHT22;5240;51.128;4.566;2023-04-25T06:29:33;8.70;99.90
10388;DHT22;5240;51.128;4.566;2023-04-25T06:32:04;8.70;99.90
10388;DHT22;5240;51.128;4.566;2023-04-25T06:34:31;8.60;99.90
10388;DHT22;5240;51.128;4.566;2023-04-25T06:36:59;8.60;99.90
10388;DHT22;5240;51.128;4.566;2023-04-25T06:39:26;8.70;99.90
10388;DHT22;5240;51.128;4.566;2023-04-25T06:41:53;8.70;99.90
10388;DHT22;5240;51.128;4.566;2023-04-25T06:44:21;8.80;99.90
10388;DHT22;5240;51.128;4.566;2023-04-25T06:46:49;8.90;99.90
10388;DHT22;5240;51.128;4.566;2023-04-25T06:49:18;8.80;99.90
10388;DHT22;5240;51.128;4.566;2023-04-25T06:51:45;8.80;99.90
10388;DHT22;5240;51.128;4.566;2023-04-25T06:54:12;8.70;99.90
10388;DHT22;5240;51.128;4.566;2023-04-25T06:56:39;8.60;99.90
10388;DHT22;5240;51.128;4.566;2023-04-25T06:59:07;8.60;99.90
10388;DHT22;5240;51.128;4.566;2023-04-25T07:01:34;8.70;99.90
10388;DHT22;5240;51.128;4.566;2023-04-25T07:04:02;8.70;99.90
10388;DHT22;5240;51.128;4.566;2023-04-25T07:06:30;8.70;99.90
10388;DHT22;5240;51.128;4.566;2023-04-25T07:08:57;8.90;99.90
10388;DHT22;5240;51.128;4.566;2023-04-25T07:11:24;9.00;99.90
10388;DHT22;5240;51.128;4.566;2023-04-25T07:13:51;9.00;99.90
10388;DHT22;5240;51.128;4.566;2023-04-25T07:16:21;9.00;99.90
10388;DHT22;5240;51.128;4.566;2023-04-25T07:18:50;8.90;99.90
10388;DHT22;5240;51.128;4.566;2023-04-25T07:21:17;8.90;99.90
10388;DHT22;5240;51.128;4.566;2023-04-25T07:23:46;8.80;99.90
10388;DHT22;5240;51.128;4.566;2023-04-25T07:26:14;8.60;99.90
10388;DHT22;5240;51.128;4.566;2023-04-25T07:28:41;8.60;99.90
10388;DHT22;5240;51.128;4.566;2023-04-25T07:31:09;8.80;99.90
10388;DHT22;5240;51.128;4.566;2023-04-25T07:33:36;8.60;99.90
10388;DHT22;5240;51.128;4.566;2023-04-25T07:36:04;8.80;99.90
10388;DHT22;5240;51.128;4.566;2023-04-25T07:38:32;9.00;99.90
10388;DHT22;5240;51.128;4.566;2023-04-25T07:41:00;9.10;99.90
10388;DHT22;5240;51.128;4.566;2023-04-25T07:43:28;9.20;99.90
10388;DHT22;5240;51.128;4.566;2023-04-25T07:45:57;9.40;99.90
10388;DHT22;5240;51.128;4.566;2023-04-25T07:48:25;9.40;99.90
10388;DHT22;5240;51.128;4.566;2023-04-25T07:50:53;9.60;99.90
10388;DHT22;5240;51.128;4.566;2023-04-25T07:53:23;9.60;99.90
10388;DHT22;5240;51.128;4.566;2023-04-25T07:55:51;9.70;99.90
10388;DHT22;5240;51.128;4.566;2023-04-25T07:58:20;9.60;99.90
10388;DHT22;5240;51.128;4.566;2023-04-25T08:00:54;9.50;99.90
10388;DHT22;5240;51.128;4.566;2023-04-25T08:03:22;9.40;99.90
10388;DHT22;5240;51.128;4.566;2023-04-25T08:05:50;9.40;99.90
10388;DHT22;5240;51.128;4.566;2023-04-25T08:08:17;9.30;99.90
10388;DHT22;5240;51.128;4.566;2023-04-25T08:10:44;9.30;99.90
10388;DHT22;5240;51.128;4.566;2023-04-25T08:13:13;9.30;99.90
10388;DHT22;5240;51.128;4.566;2023-04-25T08:15:42;9.30;99.90
10388;DHT22;5240;51.128;4.566;2023-04-25T08:18:09;9.30;99.90
10388;DHT22;5240;51.128;4.566;2023-04-25T08:20:36;9.30;99.90
10388;DHT22;5240;51.128;4.566;2023-04-25T08:23:03;9.20;99.90
10388;DHT22;5240;51.128;4.566;2023-04-25T08:25:30;9.60;99.90
10388;DHT22;5240;51.128;4.566;2023-04-25T08:28:22;10.00;99.90
10388;DHT22;5240;51.128;4.566;2023-04-25T08:36:44;10.30;99.90
10388;DHT22;5240;51.128;4.566;2023-04-25T08:39:13;10.30;99.90
10388;DHT22;5240;51.128;4.566;2023-04-25T08:41:42;10.00;99.90
10388;DHT22;5240;51.128;4.566;2023-04-25T08:44:10;9.80;99.90
10388;DHT22;5240;51.128;4.566;2023-04-25T08:46:41;9.60;99.90
10388;DHT22;5240;51.128;4.566;2023-04-25T08:49:08;9.40;99.90
10388;DHT22;5240;51.128;4.566;2023-04-25T08:51:45;9.20;99.90
10388;DHT22;5240;51.128;4.566;2023-04-25T08:54:14;9.10;99.90
10388;DHT22;5240;51.128;4.566;2023-04-25T08:56:44;9.00;99.90
10388;DHT22;5240;51.128;4.566;2023-04-25T08:59:11;8.90;99.90
10388;DHT22;5240;51.128;4.566;2023-04-25T09:01:42;9.30;99.90
10388;DHT22;5240;51.128;4.566;2023-04-25T09:04:10;10.10;99.90
10388;DHT22;5240;51.128;4.566;2023-04-25T09:06:38;11.00;99.90
10388;DHT22;5240;51.128;4.566;2023-04-25T09:09:08;11.90;99.90
10388;DHT22;5240;51.128;4.566;2023-04-25T09:11:38;12.20;99.90
10388;DHT22;5240;51.128;4.566;2023-04-25T09:14:13;12.40;99.90
10388;DHT22;5240;51.128;4.566;2023-04-25T09:17:04;11.60;99.90
10388;DHT22;5240;51.128;4.566;2023-04-25T09:19:34;11.50;99.90
10388;DHT22;5240;51.128;4.566;2023-04-25T09:22:05;11.40;99.90
10388;DHT22;5240;51.128;4.566;2023-04-25T09:24:35;11.20;99.90
10388;DHT22;5240;51.128;4.566;2023-04-25T09:27:04;11.10;99.90
10388;DHT22;5240;51.128;4.566;2023-04-25T09:29:33;11.60;99.90
10388;DHT22;5240;51.128;4.566;2023-04-25T09:32:19;12.60;99.90
10388;DHT22;5240;51.128;4.566;2023-04-25T09:34:48;13.10;99.90
10388;DHT22;5240;51.128;4.566;2023-04-25T09:37:20;12.90;99.90
10388;DHT22;5240;51.128;4.566;2023-04-25T09:39:48;13.80;99.90
10388;DHT22;5240;51.128;4.566;2023-04-25T09:42:16;14.80;99.90
10388;DHT22;5240;51.128;4.566;2023-04-25T09:44:45;14.10;99.90
10388;DHT22;5240;51.128;4.566;2023-04-25T09:47:13;13.50;99.90
10388;DHT22;5240;51.128;4.566;2023-04-25T09:49:43;14.50;99.90
10388;DHT22;5240;51.128;4.566;2023-04-25T09:52:14;15.40;99.90
10388;DHT22;5240;51.128;4.566;2023-04-25T09:54:41;14.90;99.90
10388;DHT22;5240;51.128;4.566;2023-04-25T09:57:12;13.90;99.90
10388;DHT22;5240;51.128;4.566;2023-04-25T09:59:43;13.40;99.90
10388;DHT22;5240;51.128;4.566;2023-04-25T10:02:12;12.70;99.90
10388;DHT22;5240;51.128;4.566;2023-04-25T10:04:45;12.20;99.90
10388;DHT22;5240;51.128;4.566;2023-04-25T10:07:26;11.80;99.90
10388;DHT22;5240;51.128;4.566;2023-04-25T10:09:59;11.60;99.90
10388;DHT22;5240;51.128;4.566;2023-04-25T10:12:33;11.20;99.90
10388;DHT22;5240;51.128;4.566;2023-04-25T10:15:00;11.10;99.90
10388;DHT22;5240;51.128;4.566;2023-04-25T10:17:30;11.10;99.90
10388;DHT22;5240;51.128;4.566;2023-04-25T10:20:01;11.10;99.90
10388;DHT22;5240;51.128;4.566;2023-04-25T10:22:32;11.20;99.90
10388;DHT22;5240;51.128;4.566;2023-04-25T10:25:01;11.60;99.90
10388;DHT22;5240;51.128;4.566;2023-04-25T10:27:30;12.30;99.90
10388;DHT22;5240;51.128;4.566;2023-04-25T10:30:01;13.00;99.90
10388;DHT22;5240;51.128;4.566;2023-04-25T10:32:31;14.80;99.90
10388;DHT22;5240;51.128;4.566;2023-04-25T10:35:14;15.60;99.90
10388;DHT22;5240;51.128;4.566;2023-04-25T10:37:59;14.80;99.90
10388;DHT22;5240;51.128;4.566;2023-04-25T10:40:26;13.50;99.90
10388;DHT22;5240;51.128;4.566;2023-04-25T10:42:54;12.80;99.90
10388;DHT22;5240;51.128;4.566;2023-04-25T10:45:22;12.30;99.90
10388;DHT22;5240;51.128;4.566;2023-04-25T10:47:49;11.90;99.90
10388;DHT22;5240;51.128;4.566;2023-04-25T10:50:21;11.50;99.90
10388;DHT22;5240;51.128;4.566;2023-04-25T10:52:48;11.00;99.90
10388;DHT22;5240;51.128;4.566;2023-04-25T10:55:16;10.80;99.90
10388;DHT22;5240;51.128;4.566;2023-04-25T10:57:45;10.60;99.90
10388;DHT22;5240;51.128;4.566;2023-04-25T11:00:20;10.40;99.90
10388;DHT22;5240;51.128;4.566;2023-04-25T11:02:53;10.40;99.90
10388;DHT22;5240;51.128;4.566;2023-04-25T11:05:30;10.50;99.90
10388;DHT22;5240;51.128;4.566;2023-04-25T11:08:00;10.70;99.90
10388;DHT22;5240;51.128;4.566;2023-04-25T11:10:31;11.00;99.90
10388;DHT22;5240;51.128;4.566;2023-04-25T11:13:02;11.20;99.90
10388;DHT22;5240;51.128;4.566;2023-04-25T11:15:29;11.40;99.90
10388;DHT22;5240;51.128;4.566;2023-04-25T11:17:56;11.50;99.90
10388;DHT22;5240;51.128;4.566;2023-04-25T11:20:26;11.80;99.90
10388;DHT22;5240;51.128;4.566;2023-04-25T11:22:57;12.30;99.90
10388;DHT22;5240;51.128;4.566;2023-04-25T11:25:25;13.30;99.90
10388;DHT22;5240;51.128;4.566;2023-04-25T11:27:54;13.50;99.90
10388;DHT22;5240;51.128;4.566;2023-04-25T11:30:23;14.50;99.90
10388;DHT22;5240;51.128;4.566;2023-04-25T11:32:51;15.40;99.90
10388;DHT22;5240;51.128;4.566;2023-04-25T11:35:19;16.60;99.90
10388;DHT22;5240;51.128;4.566;2023-04-25T11:37:49;17.00;99.90
10388;DHT22;5240;51.128;4.566;2023-04-25T11:40:17;17.30;99.90
10388;DHT22;5240;51.128;4.566;2023-04-25T11:42:46;18.40;99.90
10388;DHT22;5240;51.128;4.566;2023-04-25T11:45:14;19.10;99.90
10388;DHT22;5240;51.128;4.566;2023-04-25T11:47:42;17.90;99.90
10388;DHT22;5240;51.128;4.566;2023-04-25T11:50:10;17.20;99.90
10388;DHT22;5240;51.128;4.566;2023-04-25T11:52:38;16.80;99.90
10388;DHT22;5240;51.128;4.566;2023-04-25T11:55:12;14.90;99.90
10388;DHT22;5240;51.128;4.566;2023-04-25T11:57:40;14.00;99.90
10388;DHT22;5240;51.128;4.566;2023-04-25T12:00:10;13.80;99.90
10388;DHT22;5240;51.128;4.566;2023-04-25T12:02:41;14.50;99.90
10388;DHT22;5240;51.128;4.566;2023-04-25T12:05:10;15.30;99.90
10388;DHT22;5240;51.128;4.566;2023-04-25T12:07:39;16.60;99.90
10388;DHT22;5240;51.128;4.566;2023-04-25T12:10:09;16.30;99.90
10388;DHT22;5240;51.128;4.566;2023-04-25T12:12:38;15.20;99.90
10388;DHT22;5240;51.128;4.566;2023-04-25T12:15:10;14.00;99.90
10388;DHT22;5240;51.128;4.566;2023-04-25T12:17:40;13.50;99.90
10388;DHT22;5240;51.128;4.566;2023-04-25T12:20:13;12.90;99.90
10388;DHT22;5240;51.128;4.566;2023-04-25T12:22:41;13.80;99.90
10388;DHT22;5240;51.128;4.566;2023-04-25T12:25:11;14.90;99.90
10388;DHT22;5240;51.128;4.566;2023-04-25T12:27:40;14.30;99.90
10388;DHT22;5240;51.128;4.566;2023-04-25T12:30:10;13.40;99.90
10388;DHT22;5240;51.128;4.566;2023-04-25T12:32:38;13.20;99.90
10388;DHT22;5240;51.128;4.566;2023-04-25T12:35:06;14.40;99.90
10388;DHT22;5240;51.128;4.566;2023-04-25T12:37:33;16.20;99.90
10388;DHT22;5240;51.128;4.566;2023-04-25T12:40:01;16.80;99.90
10388;DHT22;5240;51.128;4.566;2023-04-25T12:42:31;16.70;99.90
10388;DHT22;5240;51.128;4.566;2023-04-25T12:45:04;16.70;99.90
10388;DHT22;5240;51.128;4.566;2023-04-25T12:47:31;17.00;99.90
10388;DHT22;5240;51.128;4.566;2023-04-25T12:50:00;17.20;99.90
10388;DHT22;5240;51.128;4.566;2023-04-25T12:52:27;18.00;99.90
10388;DHT22;5240;51.128;4.566;2023-04-25T12:55:25;18.70;99.90
10388;DHT22;5240;51.128;4.566;2023-04-25T12:58:00;19.00;99.90
10388;DHT22;5240;51.128;4.566;2023-04-25T13:00:27;19.50;99.90
10388;DHT22;5240;51.128;4.566;2023-04-25T13:02:57;19.20;99.90
10388;DHT22;5240;51.128;4.566;2023-04-25T13:05:25;18.40;99.90
10388;DHT22;5240;51.128;4.566;2023-04-25T13:07:52;19.10;99.90
10388;DHT22;5240;51.128;4.566;2023-04-25T13:10:19;19.90;99.90
10388;DHT22;5240;51.128;4.566;2023-04-25T13:12:46;20.10;99.90
10388;DHT22;5240;51.128;4.566;2023-04-25T13:15:21;20.00;99.90
10388;DHT22;5240;51.128;4.566;2023-04-25T13:17:50;20.20;99.90
10388;DHT22;5240;51.128;4.566;2023-04-25T13:20:17;18.70;99.90
10388;DHT22;5240;51.128;4.566;2023-04-25T13:22:47;16.90;99.90
10388;DHT22;5240;51.128;4.566;2023-04-25T13:25:15;15.30;99.90
10388;DHT22;5240;51.128;4.566;2023-04-25T13:27:42;14.10;99.90
10388;DHT22;5240;51.128;4.566;2023-04-25T13:30:10;13.60;99.90
10388;DHT22;5240;51.128;4.566;2023-04-25T13:32:39;13.40;99.90
10388;DHT22;5240;51.128;4.566;2023-04-25T13:35:09;13.60;99.90
10388;DHT22;5240;51.128;4.566;2023-04-25T13:37:36;13.70;99.90
10388;DHT22;5240;51.128;4.566;2023-04-25T13:40:06;15.30;99.90
10388;DHT22;5240;51.128;4.566;2023-04-25T13:42:35;16.00;99.90
10388;DHT22;5240;51.128;4.566;2023-04-25T13:45:19;15.30;99.90
10388;DHT22;5240;51.128;4.566;2023-04-25T13:48:03;14.50;99.90
10388;DHT22;5240;51.128;4.566;2023-04-25T13:50:31;14.20;99.90
10388;DHT22;5240;51.128;4.566;2023-04-25T13:52:59;13.80;99.90
10388;DHT22;5240;51.128;4.566;2023-04-25T13:55:33;13.70;99.90
10388;DHT22;5240;51.128;4.566;2023-04-25T13:58:04;14.40;99.90
10388;DHT22;5240;51.128;4.566;2023-04-25T14:00:36;14.70;99.90
10388;DHT22;5240;51.128;4.566;2023-04-25T14:03:09;14.40;99.90
10388;DHT22;5240;51.128;4.566;2023-04-25T14:05:36;13.80;99.90
10388;DHT22;5240;51.128;4.566;2023-04-25T14:08:06;13.10;99.90
10388;DHT22;5240;51.128;4.566;2023-04-25T14:10:33;13.50;99.90
10388;DHT22;5240;51.128;4.566;2023-04-25T14:13:00;14.50;99.90
10388;DHT22;5240;51.128;4.566;2023-04-25T14:15:30;14.60;99.90
10388;DHT22;5240;51.128;4.566;2023-04-25T14:17:58;14.20;99.90
10388;DHT22;5240;51.128;4.566;2023-04-25T14:20:27;14.30;99.90
10388;DHT22;5240;51.128;4.566;2023-04-25T14:22:54;15.70;99.90
10388;DHT22;5240;51.128;4.566;2023-04-25T14:25:21;16.60;99.90
10388;DHT22;5240;51.128;4.566;2023-04-25T14:27:49;16.20;99.90
10388;DHT22;5240;51.128;4.566;2023-04-25T14:30:17;15.40;99.90
10388;DHT22;5240;51.128;4.566;2023-04-25T14:32:44;14.70;99.90
10388;DHT22;5240;51.128;4.566;2023-04-25T14:35:13;15.20;99.90
10388;DHT22;5240;51.128;4.566;2023-04-25T14:43:28;16.90;99.90
10388;DHT22;5240;51.128;4.566;2023-04-25T14:45:56;16.60;99.90
10388;DHT22;5240;51.128;4.566;2023-04-25T14:48:23;15.50;99.90
10388;DHT22;5240;51.128;4.566;2023-04-25T14:50:50;14.50;99.90
10388;DHT22;5240;51.128;4.566;2023-04-25T14:53:17;14.00;99.90
10388;DHT22;5240;51.128;4.566;2023-04-25T14:55:44;14.60;99.90
10388;DHT22;5240;51.128;4.566;2023-04-25T14:58:12;16.00;99.90
10388;DHT22;5240;51.128;4.566;2023-04-25T15:00:40;16.80;99.90
10388;DHT22;5240;51.128;4.566;2023-04-25T15:03:08;16.50;99.90
10388;DHT22;5240;51.128;4.566;2023-04-25T15:05:37;15.90;99.90
10388;DHT22;5240;51.128;4.566;2023-04-25T15:08:04;15.50;99.90
10388;DHT22;5240;51.128;4.566;2023-04-25T15:10:31;15.40;99.90
10388;DHT22;5240;51.128;4.566;2023-04-25T15:12:58;15.20;99.90
10388;DHT22;5240;51.128;4.566;2023-04-25T15:15:26;15.70;99.90
10388;DHT22;5240;51.128;4.566;2023-04-25T15:17:55;15.80;99.90
10388;DHT22;5240;51.128;4.566;2023-04-25T15:20:22;16.00;99.90
10388;DHT22;5240;51.128;4.566;2023-04-25T15:22:50;16.30;99.90
10388;DHT22;5240;51.128;4.566;2023-04-25T15:25:17;17.40;99.90
10388;DHT22;5240;51.128;4.566;2023-04-25T15:27:44;17.40;99.90
10388;DHT22;5240;51.128;4.566;2023-04-25T15:30:14;18.00;99.90
10388;DHT22;5240;51.128;4.566;2023-04-25T15:32:42;18.80;99.90
10388;DHT22;5240;51.128;4.566;2023-04-25T15:35:11;19.00;99.90
10388;DHT22;5240;51.128;4.566;2023-04-25T15:37:38;18.80;99.90
10388;DHT22;5240;51.128;4.566;2023-04-25T15:40:07;19.00;99.90
10388;DHT22;5240;51.128;4.566;2023-04-25T15:42:35;18.70;99.90
10388;DHT22;5240;51.128;4.566;2023-04-25T15:45:13;18.60;99.90
10388;DHT22;5240;51.128;4.566;2023-04-25T15:47:42;18.30;99.90
10388;DHT22;5240;51.128;4.566;2023-04-25T15:50:12;18.10;99.90
10388;DHT22;5240;51.128;4.566;2023-04-25T15:52:39;18.00;99.90
10388;DHT22;5240;51.128;4.566;2023-04-25T15:55:07;17.80;99.90
10388;DHT22;5240;51.128;4.566;2023-04-25T15:57:35;17.50;99.90
10388;DHT22;5240;51.128;4.566;2023-04-25T16:00:04;17.90;99.90
10388;DHT22;5240;51.128;4.566;2023-04-25T16:02:33;17.60;99.90
10388;DHT22;5240;51.128;4.566;2023-04-25T16:05:01;17.40;99.90
10388;DHT22;5240;51.128;4.566;2023-04-25T16:07:30;16.80;99.90
10388;DHT22;5240;51.128;4.566;2023-04-25T16:09:57;16.40;99.90
10388;DHT22;5240;51.128;4.566;2023-04-25T16:12:25;16.50;99.90
10388;DHT22;5240;51.128;4.566;2023-04-25T16:14:53;16.00;99.90
10388;DHT22;5240;51.128;4.566;2023-04-25T16:17:20;15.70;99.90
10388;DHT22;5240;51.128;4.566;2023-04-25T16:19:47;16.10;99.90
10388;DHT22;5240;51.128;4.566;2023-04-25T16:22:15;15.90;99.90
10388;DHT22;5240;51.128;4.566;2023-04-25T16:24:43;15.20;99.90
10388;DHT22;5240;51.128;4.566;2023-04-25T16:27:11;14.20;99.90
10388;DHT22;5240;51.128;4.566;2023-04-25T16:29:38;13.50;99.90
10388;DHT22;5240;51.128;4.566;2023-04-25T16:32:05;13.40;99.90
10388;DHT22;5240;51.128;4.566;2023-04-25T16:34:33;13.30;99.90
10388;DHT22;5240;51.128;4.566;2023-04-25T16:37:00;13.20;99.90
10388;DHT22;5240;51.128;4.566;2023-04-25T16:39:27;13.00;99.90